Time;durP1;ratioP1;P1;durP2;ratioP2;P2;SDS_P1;SDS_P2;PMS_P1;PMS_P2;Temp;Humidity;BMP_temperature;BMP_pressure;BME280_temperature;BME280_humidity;BME280_pressure;Samples;Min_cycle;Max_cycle;Signal;HPM_P1;HPM_P2
2021/06/22 00:01:46;;;;;;;0.57;0.57;;;13.60;81.60;;;;;;5076205;28;20039;-75
2021/06/22 00:04:12;;;;;;;0.50;0.50;;;13.60;81.60;;;;;;5076274;28;20040;-76
2021/06/22 00:06:37;;;;;;;0.93;0.68;;;13.60;81.60;;;;;;5075490;28;20040;-79
2021/06/22 00:09:03;;;;;;;1.10;0.68;;;13.60;81.70;;;;;;5058294;28;20032;-77
2021/06/22 00:11:29;;;;;;;0.50;0.50;;;13.50;81.70;;;;;;5093390;28;20036;-75
2021/06/22 00:13:55;;;;;;;1.98;0.50;;;13.60;81.80;;;;;;5074476;28;20406;-76
2021/06/22 00:16:20;;;;;;;0.40;0.40;;;13.60;81.70;;;;;;5074812;28;20170;-81
2021/06/22 00:18:46;;;;;;;0.43;0.43;;;13.50;81.70;;;;;;5075951;28;20052;-80
2021/06/22 00:21:13;;;;;;;0.85;0.50;;;13.60;81.80;;;;;;5041516;28;20040;-80
2021/06/22 00:24:01;;;;;;;0.80;0.50;;;13.50;81.60;;;;;;5074967;28;20525;-84
2021/06/22 00:26:27;;;;;;;0.85;0.52;;;13.60;81.60;;;;;;5078936;28;20096;-80
2021/06/22 00:28:55;;;;;;;1.30;0.57;;;13.50;81.50;;;;;;5076271;28;20032;-80
2021/06/22 00:31:26;;;;;;;0.85;0.55;;;13.60;81.60;;;;;;5061352;28;20064;-81
2021/06/22 00:33:52;;;;;;;0.38;0.38;;;13.50;81.60;;;;;;5036510;28;20036;-81
2021/06/22 00:36:20;;;;;;;0.52;0.50;;;13.50;81.60;;;;;;5003873;28;20088;-84
2021/06/22 00:38:46;;;;;;;0.90;0.45;;;13.50;81.70;;;;;;5039100;28;20140;-77
2021/06/22 00:41:12;;;;;;;0.73;0.60;;;13.50;81.70;;;;;;5054806;28;20092;-79
2021/06/22 00:43:39;;;;;;;0.75;0.68;;;13.50;81.70;;;;;;5035532;28;20045;-79
2021/06/22 00:46:05;;;;;;;0.90;0.57;;;13.50;81.70;;;;;;5036480;28;20041;-78
2021/06/22 00:48:31;;;;;;;0.52;0.52;;;13.60;81.80;;;;;;5003074;28;20425;-80
2021/06/22 00:50:57;;;;;;;0.52;0.52;;;13.50;81.70;;;;;;5038091;28;20036;-78
2021/06/22 00:53:23;;;;;;;0.77;0.60;;;13.50;81.80;;;;;;5037113;28;20041;-79
2021/06/22 00:55:52;;;;;;;1.42;0.73;;;13.50;81.80;;;;;;5004457;28;20530;-76
2021/06/22 00:58:20;;;;;;;0.60;0.60;;;13.40;81.90;;;;;;5076476;28;20032;-76
2021/06/22 01:00:46;;;;;;;0.52;0.52;;;13.50;81.90;;;;;;5077997;28;20032;-78
2021/06/22 01:03:12;;;;;;;0.85;0.45;;;13.40;81.90;;;;;;5060114;28;20059;-77
2021/06/22 01:05:38;;;;;;;0.60;0.60;;;13.40;82.00;;;;;;5095496;28;20036;-77
2021/06/22 01:08:04;;;;;;;0.70;0.50;;;13.40;82.10;;;;;;5076680;28;20097;-77
2021/06/22 01:10:30;;;;;;;0.93;0.60;;;13.40;82.10;;;;;;5076744;28;20040;-77
2021/06/22 01:12:57;;;;;;;0.47;0.47;;;13.40;82.20;;;;;;5095335;28;20085;-77
2021/06/22 01:15:26;;;;;;;0.88;0.52;;;13.40;82.20;;;;;;5094819;28;20040;-77
2021/06/22 01:17:53;;;;;;;0.65;0.65;;;13.40;82.20;;;;;;5060011;28;20043;-77
2021/06/22 01:20:22;;;;;;;0.65;0.52;;;13.30;82.10;;;;;;5060578;28;20446;-77
2021/06/22 01:22:48;;;;;;;0.90;0.47;;;13.40;82.10;;;;;;5076324;28;20052;-77
2021/06/22 01:25:15;;;;;;;1.30;0.50;;;13.40;82.10;;;;;;5094610;28;20040;-77
2021/06/22 01:27:41;;;;;;;1.27;0.70;;;13.40;82.10;;;;;;5095076;28;20032;-77
2021/06/22 01:30:08;;;;;;;1.38;0.50;;;13.40;82.10;;;;;;5076716;28;20043;-77
2021/06/22 01:32:35;;;;;;;1.20;0.70;;;13.40;82.10;;;;;;5094393;28;20131;-77
2021/06/22 01:35:01;;;;;;;1.40;0.70;;;13.40;82.20;;;;;;5094686;28;20040;-77
2021/06/22 01:37:26;;;;;;;0.85;0.70;;;13.30;82.20;;;;;;5076384;28;20044;-77
2021/06/22 01:39:52;;;;;;;1.10;0.70;;;13.30;82.30;;;;;;5075634;28;20122;-77
2021/06/22 01:42:19;;;;;;;1.10;0.60;;;13.30;82.40;;;;;;5076033;28;20040;-76
2021/06/22 01:44:47;;;;;;;0.98;0.77;;;13.20;82.40;;;;;;5094152;28;20068;-77
2021/06/22 01:47:14;;;;;;;0.73;0.73;;;13.20;82.50;;;;;;5059956;28;20072;-77
2021/06/22 01:49:40;;;;;;;0.60;0.50;;;13.20;82.50;;;;;;5094528;28;20032;-77
2021/06/22 01:52:06;;;;;;;0.82;0.70;;;13.10;82.50;;;;;;5076381;28;20032;-77
2021/06/22 01:54:32;;;;;;;0.70;0.50;;;13.10;82.60;;;;;;5075942;28;20143;-77
2021/06/22 01:56:58;;;;;;;0.65;0.50;;;13.20;82.70;;;;;;5059256;28;20051;-76
2021/06/22 01:59:24;;;;;;;1.25;0.65;;;13.00;82.70;;;;;;5075726;28;20032;-77
2021/06/22 02:01:50;;;;;;;0.50;0.50;;;13.00;82.70;;;;;;5058987;28;20054;-77
2021/06/22 02:04:17;;;;;;;1.20;0.70;;;13.10;82.80;;;;;;5075711;28;20040;-77
2021/06/22 02:06:43;;;;;;;0.80;0.50;;;13.10;82.90;;;;;;5059096;28;20081;-77
2021/06/22 02:09:10;;;;;;;0.70;0.70;;;13.10;82.90;;;;;;5076017;28;20036;-77
2021/06/22 02:11:37;;;;;;;0.60;0.40;;;13.00;82.80;;;;;;5075502;28;20460;-77
2021/06/22 02:14:05;;;;;;;0.40;0.40;;;13.10;82.90;;;;;;5094101;28;20044;-77
2021/06/22 02:16:31;;;;;;;0.50;0.50;;;13.10;83.00;;;;;;5075770;28;20036;-77
2021/06/22 02:18:58;;;;;;;0.40;0.40;;;13.00;83.00;;;;;;5059101;28;20036;-77
2021/06/22 02:21:24;;;;;;;0.70;0.60;;;13.00;83.00;;;;;;5075866;28;20039;-77
2021/06/22 02:23:50;;;;;;;0.98;0.50;;;13.00;83.00;;;;;;5075426;28;20047;-77
2021/06/22 02:26:16;;;;;;;1.15;0.40;;;13.00;83.00;;;;;;5058570;28;20040;-77
2021/06/22 02:28:42;;;;;;;0.50;0.50;;;13.00;83.00;;;;;;5093460;28;20028;-77
2021/06/22 02:31:08;;;;;;;0.80;0.38;;;13.00;83.10;;;;;;5075192;28;20089;-77
2021/06/22 02:33:34;;;;;;;0.85;0.50;;;13.00;83.10;;;;;;5093292;28;20486;-77
2021/06/22 02:36:00;;;;;;;0.45;0.40;;;13.00;83.10;;;;;;5075117;28;20043;-77
2021/06/22 02:38:26;;;;;;;0.52;0.43;;;13.00;83.00;;;;;;5093344;28;20043;-77
2021/06/22 02:40:51;;;;;;;1.13;0.52;;;13.00;83.00;;;;;;5075050;28;20048;-77
2021/06/22 02:43:17;;;;;;;0.45;0.45;;;13.00;83.00;;;;;;5058230;28;20051;-77
2021/06/22 02:45:43;;;;;;;0.32;0.32;;;13.00;83.10;;;;;;5074894;28;20447;-77
2021/06/22 02:48:10;;;;;;;0.95;0.52;;;12.90;83.00;;;;;;5058203;28;20036;-77
2021/06/22 02:50:39;;;;;;;0.52;0.50;;;12.90;83.00;;;;;;5075077;28;20036;-77
2021/06/22 02:53:05;;;;;;;0.70;0.47;;;12.90;83.10;;;;;;5074874;28;20131;-76
2021/06/22 02:55:31;;;;;;;0.50;0.50;;;12.90;83.10;;;;;;5041775;28;20075;-77
2021/06/22 02:57:58;;;;;;;0.90;0.52;;;12.80;83.00;;;;;;5092931;28;20068;-77
2021/06/22 03:00:27;;;;;;;0.35;0.35;;;12.80;83.10;;;;;;5093335;28;20123;-77
2021/06/22 03:02:53;;;;;;;0.95;0.50;;;12.80;83.20;;;;;;5093410;28;20054;-77
2021/06/22 03:05:20;;;;;;;0.50;0.50;;;12.80;83.20;;;;;;5075416;28;20131;-77
2021/06/22 03:07:45;;;;;;;0.50;0.50;;;12.80;83.20;;;;;;5041502;28;20032;-77
2021/06/22 03:10:15;;;;;;;0.82;0.57;;;12.80;83.20;;;;;;5093360;28;20040;-77
2021/06/22 03:12:41;;;;;;;0.75;0.50;;;12.90;83.30;;;;;;5058584;28;20036;-77
2021/06/22 03:15:08;;;;;;;0.52;0.50;;;12.80;83.30;;;;;;5075246;28;20040;-77
2021/06/22 03:17:35;;;;;;;0.50;0.50;;;12.80;83.30;;;;;;5074472;28;20088;-77
2021/06/22 03:20:00;;;;;;;1.13;0.73;;;12.80;83.30;;;;;;5057983;28;20051;-77
2021/06/22 03:22:26;;;;;;;1.75;0.70;;;12.80;83.30;;;;;;5074636;28;20481;-77
2021/06/22 03:24:52;;;;;;;0.68;0.60;;;12.70;83.20;;;;;;5092869;28;20109;-77
2021/06/22 03:27:20;;;;;;;1.13;0.60;;;12.70;83.30;;;;;;5092431;28;20135;-76
2021/06/22 03:29:45;;;;;;;0.63;0.50;;;12.70;83.30;;;;;;5074583;28;20044;-77
2021/06/22 03:32:11;;;;;;;0.95;0.70;;;12.80;83.30;;;;;;5074459;28;20047;-77
2021/06/22 03:34:39;;;;;;;1.33;0.63;;;12.70;83.20;;;;;;5075081;28;20043;-77
2021/06/22 03:37:05;;;;;;;0.82;0.50;;;12.80;83.20;;;;;;5074924;28;20036;-77
2021/06/22 03:39:32;;;;;;;1.10;0.50;;;12.70;83.10;;;;;;5075051;28;20044;-77
2021/06/22 03:41:57;;;;;;;0.85;0.60;;;12.80;83.20;;;;;;5074381;28;20478;-77
2021/06/22 03:44:23;;;;;;;1.25;0.82;;;12.80;83.10;;;;;;5074126;28;20074;-77
2021/06/22 03:46:49;;;;;;;0.73;0.60;;;12.80;83.00;;;;;;5092374;28;20517;-77
2021/06/22 03:49:14;;;;;;;0.88;0.70;;;12.80;83.00;;;;;;5074001;28;20123;-77
2021/06/22 03:51:40;;;;;;;0.40;0.40;;;12.80;83.00;;;;;;5074357;28;20362;-77
2021/06/22 03:54:06;;;;;;;1.42;0.68;;;12.80;83.10;;;;;;5073992;28;20044;-78
2021/06/22 03:56:32;;;;;;;0.77;0.60;;;12.80;83.00;;;;;;5092166;28;20047;-78
2021/06/22 03:58:57;;;;;;;1.25;0.70;;;12.80;83.10;;;;;;5092223;28;20107;-78
2021/06/22 04:01:24;;;;;;;0.57;0.55;;;12.80;83.10;;;;;;5075380;28;20114;-77
2021/06/22 04:03:49;;;;;;;1.17;0.60;;;12.80;83.00;;;;;;5044820;28;20036;-78
2021/06/22 04:06:16;;;;;;;0.60;0.60;;;12.80;83.00;;;;;;5065275;28;20040;-77
2021/06/22 04:08:42;;;;;;;0.90;0.60;;;12.70;82.90;;;;;;5046347;28;20051;-77
2021/06/22 04:11:08;;;;;;;1.67;0.70;;;12.80;82.90;;;;;;5078747;28;20374;-77
2021/06/22 04:13:35;;;;;;;0.50;0.50;;;12.80;82.90;;;;;;5097997;28;20054;-77
2021/06/22 04:16:01;;;;;;;1.50;0.60;;;12.80;82.80;;;;;;5078246;28;20044;-77
2021/06/22 04:18:27;;;;;;;0.90;0.80;;;12.90;82.80;;;;;;5062475;28;20456;-78
2021/06/22 04:20:53;;;;;;;0.93;0.60;;;12.80;82.70;;;;;;5062851;28;20458;-77
2021/06/22 04:23:18;;;;;;;0.65;0.60;;;12.80;82.70;;;;;;5061627;28;20102;-78
2021/06/22 04:25:44;;;;;;;0.50;0.50;;;12.80;82.60;;;;;;5096488;28;20040;-78
2021/06/22 04:28:11;;;;;;;0.77;0.50;;;12.80;82.60;;;;;;5078829;28;20040;-78
2021/06/22 04:30:38;;;;;;;0.80;0.73;;;12.80;82.60;;;;;;5078344;28;20033;-77
2021/06/22 04:33:05;;;;;;;1.23;0.65;;;12.90;82.60;;;;;;5047049;28;20044;-77
2021/06/22 04:35:32;;;;;;;1.65;0.95;;;12.90;82.50;;;;;;5079940;28;20482;-78
2021/06/22 04:37:59;;;;;;;1.20;0.80;;;12.90;82.50;;;;;;5098299;28;20074;-76
2021/06/22 04:40:26;;;;;;;1.00;0.90;;;12.90;82.40;;;;;;5077726;28;20044;-77
2021/06/22 04:42:52;;;;;;;1.48;1.00;;;12.90;82.40;;;;;;5094994;28;20099;-77
2021/06/22 04:45:18;;;;;;;1.17;0.80;;;13.00;82.40;;;;;;5095463;28;20028;-79
2021/06/22 04:47:44;;;;;;;1.55;0.98;;;13.00;82.30;;;;;;5077104;28;20367;-76
2021/06/22 04:50:10;;;;;;;1.23;0.77;;;13.00;82.20;;;;;;5095664;28;20060;-77
2021/06/22 04:52:36;;;;;;;1.58;1.10;;;13.10;82.10;;;;;;5060952;28;20044;-77
2021/06/22 04:55:05;;;;;;;1.70;1.10;;;13.10;82.10;;;;;;5060770;28;20131;-77
2021/06/22 04:57:31;;;;;;;2.55;1.10;;;13.10;82.00;;;;;;5081918;28;20051;-78
2021/06/22 04:59:57;;;;;;;1.98;1.13;;;13.10;81.90;;;;;;5096538;28;20040;-78
2021/06/22 05:02:23;;;;;;;1.52;1.05;;;13.30;81.80;;;;;;5060667;28;20047;-77
2021/06/22 05:04:50;;;;;;;1.30;0.93;;;13.30;81.70;;;;;;5077042;28;20390;-77
2021/06/22 05:07:16;;;;;;;1.55;1.08;;;13.30;82.20;;;;;;5075973;28;20036;-77
2021/06/22 05:09:42;;;;;;;1.02;0.85;;;13.40;81.50;;;;;;5080183;28;20035;-77
2021/06/22 05:12:08;;;;;;;2.00;1.13;;;13.40;81.40;;;;;;5079356;28;20040;-77
2021/06/22 05:14:34;;;;;;;2.00;1.20;;;13.50;81.20;;;;;;5096976;28;20024;-78
2021/06/22 05:16:59;;;;;;;2.30;1.30;;;13.60;81.20;;;;;;5078586;28;20097;-78
2021/06/22 05:19:25;;;;;;;1.75;1.15;;;13.60;80.90;;;;;;5078882;28;20032;-77
2021/06/22 05:21:51;;;;;;;1.48;1.15;;;13.70;80.80;;;;;;5078318;28;20062;-78
2021/06/22 05:24:16;;;;;;;1.23;1.00;;;13.80;80.60;;;;;;5077435;28;20051;-78
2021/06/22 05:26:42;;;;;;;1.27;0.95;;;13.90;80.50;;;;;;5078253;28;20402;-79
2021/06/22 05:29:11;;;;;;;2.22;1.20;;;13.90;80.30;;;;;;5096959;28;20374;-76
2021/06/22 05:31:36;;;;;;;1.52;1.17;;;14.00;80.20;;;;;;5080275;28;20366;-75
2021/06/22 05:34:02;;;;;;;2.92;1.20;;;14.10;80.20;;;;;;5096585;28;20051;-75
2021/06/22 05:36:28;;;;;;;1.65;1.05;;;14.10;80.00;;;;;;5045315;28;20055;-75
2021/06/22 05:38:54;;;;;;;2.78;1.23;;;14.20;79.80;;;;;;5096237;28;20036;-76
2021/06/22 05:41:19;;;;;;;1.90;1.17;;;14.30;79.70;;;;;;5097412;28;20435;-75
2021/06/22 05:43:45;;;;;;;2.47;1.40;;;14.40;79.50;;;;;;5096368;28;20505;-74
2021/06/22 05:46:11;;;;;;;2.33;1.33;;;14.40;79.50;;;;;;5095820;28;20040;-75
2021/06/22 05:48:36;;;;;;;2.38;1.50;;;14.40;79.30;;;;;;5094749;28;20040;-75
2021/06/22 05:51:02;;;;;;;1.33;1.20;;;14.40;79.30;;;;;;5077240;28;20052;-76
2021/06/22 05:53:28;;;;;;;1.83;1.20;;;14.50;79.40;;;;;;5096096;28;20093;-75
2021/06/22 05:55:54;;;;;;;1.50;1.10;;;14.50;79.40;;;;;;5077818;28;20036;-75
2021/06/22 05:58:20;;;;;;;1.90;1.20;;;14.60;79.30;;;;;;5096313;28;20837;-75
2021/06/22 06:00:45;;;;;;;1.45;1.17;;;14.80;79.10;;;;;;5077631;28;20044;-75
2021/06/22 06:03:11;;;;;;;2.42;1.27;;;14.80;78.90;;;;;;5077113;28;20520;-75
2021/06/22 06:05:37;;;;;;;1.70;0.95;;;15.00;78.70;;;;;;5077490;28;20062;-75
2021/06/22 06:08:03;;;;;;;2.47;1.20;;;15.10;78.40;;;;;;5078387;28;20067;-75
2021/06/22 06:10:29;;;;;;;1.30;1.10;;;15.10;78.20;;;;;;5077868;28;20036;-75
2021/06/22 06:12:55;;;;;;;1.80;1.38;;;15.20;78.20;;;;;;5077557;28;20398;-74
2021/06/22 06:15:20;;;;;;;2.78;1.40;;;15.30;78.10;;;;;;5097505;28;20043;-75
2021/06/22 06:17:46;;;;;;;1.65;1.30;;;15.40;77.90;;;;;;5096134;28;20040;-75
2021/06/22 06:20:14;;;;;;;1.77;1.42;;;15.50;77.80;;;;;;5077615;28;20113;-76
2021/06/22 06:22:41;;;;;;;1.92;1.30;;;15.70;77.50;;;;;;5079682;28;20044;-76
2021/06/22 06:25:09;;;;;;;1.60;1.30;;;15.80;77.20;;;;;;5096648;28;20505;-75
2021/06/22 06:27:48;;;;;;;1.52;1.30;;;15.90;76.80;;;;;;5097536;28;20044;-76
2021/06/22 06:30:17;;;;;;;2.05;1.40;;;16.00;76.40;;;;;;5082725;28;20048;-76
2021/06/22 06:32:45;;;;;;;1.50;1.33;;;16.00;76.40;;;;;;5097301;28;20067;-77
2021/06/22 06:35:12;;;;;;;2.17;1.38;;;15.90;76.60;;;;;;5096284;28;20486;-75
2021/06/22 06:37:37;;;;;;;1.67;1.50;;;15.90;76.60;;;;;;5096148;28;20040;-80
2021/06/22 06:40:05;;;;;;;2.50;1.50;;;15.90;76.70;;;;;;5095650;28;20546;-76
2021/06/22 06:42:31;;;;;;;2.55;1.60;;;15.90;76.80;;;;;;5076646;28;20036;-78
2021/06/22 06:44:56;;;;;;;2.67;1.70;;;15.80;76.80;;;;;;5079194;28;20043;-76
2021/06/22 06:47:22;;;;;;;1.77;1.60;;;15.90;76.80;;;;;;5102595;28;20036;-78
2021/06/22 06:49:48;;;;;;;2.58;1.55;;;15.80;76.70;;;;;;5077082;28;20059;-79
2021/06/22 06:52:16;;;;;;;2.20;1.70;;;16.00;76.80;;;;;;5041912;28;20101;-78
2021/06/22 06:54:42;;;;;;;3.40;1.50;;;16.00;76.60;;;;;;5058383;28;20032;-76
2021/06/22 06:57:08;;;;;;;1.73;1.45;;;16.00;76.50;;;;;;5076316;28;20036;-79
2021/06/22 06:59:34;;;;;;;1.77;1.33;;;16.10;76.40;;;;;;5063851;28;20040;-76
2021/06/22 07:02:00;;;;;;;2.72;1.60;;;16.20;76.20;;;;;;5095376;28;20032;-77
2021/06/22 07:04:25;;;;;;;2.15;1.20;;;16.20;76.10;;;;;;5098833;28;20396;-78
2021/06/22 07:06:51;;;;;;;2.40;1.40;;;16.20;76.00;;;;;;5060935;28;20036;-75
2021/06/22 07:09:17;;;;;;;2.83;1.63;;;16.30;76.10;;;;;;5086801;28;20030;-77
2021/06/22 07:11:43;;;;;;;1.30;1.20;;;16.30;75.80;;;;;;5072310;28;20038;-76
2021/06/22 07:14:47;;;;;;;2.25;1.45;;;16.30;75.80;;;;;;5061668;28;20032;-80
2021/06/22 07:17:13;;;;;;;2.03;1.38;;;16.50;75.80;;;;;;5092628;28;20054;-77
2021/06/22 07:19:39;;;;;;;2.42;1.60;;;16.40;75.60;;;;;;5095060;28;20131;-80
2021/06/22 07:22:07;;;;;;;2.17;1.50;;;16.50;75.50;;;;;;5092906;28;20040;-79
2021/06/22 07:24:32;;;;;;;2.60;1.63;;;16.50;75.40;;;;;;5098033;28;20048;-78
2021/06/22 07:26:58;;;;;;;2.35;1.60;;;16.50;75.20;;;;;;5060648;28;20434;-78
2021/06/22 07:29:24;;;;;;;1.67;1.45;;;16.50;75.10;;;;;;5062565;28;20036;-82
2021/06/22 07:31:49;;;;;;;2.40;1.48;;;16.60;75.20;;;;;;5079731;28;20028;-80
2021/06/22 07:34:23;;;;;;;1.83;1.50;;;16.50;75.20;;;;;;5061144;28;20036;-81
2021/06/22 07:36:57;;;;;;;1.38;1.27;;;16.40;75.40;;;;;;5041825;28;20050;-79
2021/06/22 07:42:42;;;;;;;1.73;1.33;;;16.50;75.50;;;;;;4988532;28;20129;-80
2021/06/22 07:45:41;;;;;;;1.42;1.17;;;16.60;75.30;;;;;;4988598;28;20178;-84
2021/06/22 07:48:08;;;;;;;2.70;1.60;;;16.80;75.00;;;;;;5010500;28;20116;-77
2021/06/22 07:50:34;;;;;;;2.45;1.70;;;16.90;74.70;;;;;;5012815;28;20152;-79
2021/06/22 07:53:02;;;;;;;2.42;1.50;;;17.00;74.30;;;;;;4978779;28;20555;-79
2021/06/22 07:55:28;;;;;;;1.90;1.45;;;17.00;74.10;;;;;;4996544;28;20040;-77
2021/06/22 07:57:54;;;;;;;2.30;1.50;;;17.00;74.80;;;;;;4994398;28;20042;-76
2021/06/22 08:03:06;;;;;;;2.25;1.45;;;17.10;74.10;;;;;;4981566;28;20054;-77
2021/06/22 08:05:32;;;;;;;4.05;1.73;;;17.20;74.00;;;;;;4994120;28;20502;-79
2021/06/22 08:07:58;;;;;;;2.58;1.73;;;17.20;73.80;;;;;;4995485;28;20040;-79
2021/06/22 08:10:24;;;;;;;2.30;1.70;;;17.40;73.70;;;;;;4994238;28;20518;-77
2021/06/22 08:12:50;;;;;;;3.17;2.00;;;17.40;73.60;;;;;;5031195;28;20048;-80
2021/06/22 08:15:16;;;;;;;2.85;1.67;;;17.50;73.40;;;;;;5040900;28;20097;-77
2021/06/22 08:17:44;;;;;;;2.45;1.77;;;17.60;73.20;;;;;;5057783;28;20051;-80
2021/06/22 08:20:10;;;;;;;3.28;1.90;;;17.60;72.90;;;;;;5074611;28;20040;-80
2021/06/22 08:22:37;;;;;;;2.33;1.70;;;17.50;72.90;;;;;;5056822;28;20040;-79
2021/06/22 08:25:05;;;;;;;1.77;1.58;;;17.50;73.00;;;;;;5057408;28;20032;-77
2021/06/22 08:27:30;;;;;;;2.10;1.63;;;17.50;73.10;;;;;;5075545;28;20044;-81
2021/06/22 08:29:58;;;;;;;2.40;1.90;;;17.50;73.20;;;;;;5062407;28;20032;-83
2021/06/22 08:32:24;;;;;;;2.50;1.83;;;17.40;73.20;;;;;;5081484;28;20036;-82
2021/06/22 08:34:50;;;;;;;1.90;1.70;;;17.40;73.20;;;;;;5041367;28;20043;-81
2021/06/22 08:37:16;;;;;;;3.53;2.50;;;17.40;73.30;;;;;;5073955;28;20044;-82
2021/06/22 08:39:42;;;;;;;2.85;1.80;;;17.50;73.10;;;;;;5054812;28;20371;-79
2021/06/22 08:42:10;;;;;;;2.92;2.03;;;17.50;73.10;;;;;;5056929;28;20051;-80
2021/06/22 08:44:37;;;;;;;3.03;1.90;;;17.70;73.40;;;;;;5074809;28;20032;-81
2021/06/22 08:47:03;;;;;;;4.75;2.00;;;17.80;72.40;;;;;;5055895;28;20045;-81
2021/06/22 08:49:32;;;;;;;3.13;2.00;;;17.80;72.00;;;;;;5094608;28;20040;-83
2021/06/22 08:51:58;;;;;;;3.58;2.00;;;18.00;71.90;;;;;;5061879;28;20036;-82
2021/06/22 08:54:48;;;;;;;2.70;1.88;;;18.00;71.80;;;;;;5061153;28;20462;-87
2021/06/22 08:57:14;;;;;;;3.15;2.00;;;18.10;71.70;;;;;;5038814;28;20152;-84
2021/06/22 08:59:47;;;;;;;3.00;2.00;;;18.20;71.40;;;;;;5018627;28;20564;-81
2021/06/22 09:02:22;;;;;;;3.15;1.80;;;18.20;71.40;;;;;;5035017;28;20045;-81
2021/06/22 09:04:48;;;;;;;3.45;1.90;;;18.30;71.20;;;;;;5018330;28;20060;-78
2021/06/22 09:07:45;;;;;;;2.97;1.98;;;18.20;71.20;;;;;;5030586;28;20448;-79
2021/06/22 09:10:22;;;;;;;1.80;1.50;;;18.40;71.20;;;;;;5037206;28;20052;-80
2021/06/22 09:12:48;;;;;;;2.03;1.50;;;18.50;71.10;;;;;;5053299;28;20139;-79
2021/06/22 09:15:17;;;;;;;2.42;1.77;;;18.60;70.70;;;;;;5039270;28;20044;-78
2021/06/22 09:17:45;;;;;;;1.73;1.48;;;18.60;70.60;;;;;;5053045;28;20045;-80
2021/06/22 09:20:12;;;;;;;2.20;1.67;;;18.70;70.70;;;;;;5038941;28;20605;-80
2021/06/22 09:22:38;;;;;;;2.72;1.73;;;18.70;70.70;;;;;;5038699;28;20127;-79
2021/06/22 09:25:09;;;;;;;3.33;1.98;;;19.00;70.40;;;;;;5054903;28;20041;-79
2021/06/22 09:27:53;;;;;;;2.53;1.73;;;19.30;69.90;;;;;;5052137;28;20113;-79
2021/06/22 09:30:57;;;;;;;2.08;1.70;;;19.50;69.00;;;;;;5095332;28;20032;-76
2021/06/22 09:33:27;;;;;;;2.33;1.73;;;19.70;68.60;;;;;;5094683;28;20059;-78
2021/06/22 09:36:27;;;;;;;2.40;1.80;;;19.90;68.50;;;;;;5078335;28;20036;-81
2021/06/22 09:38:58;;;;;;;3.03;1.77;;;20.00;68.20;;;;;;5078828;28;20047;-79
2021/06/22 09:41:27;;;;;;;3.30;1.73;;;20.10;68.00;;;;;;5044326;28;20055;-81
2021/06/22 09:44:11;;;;;;;1.90;1.52;;;20.30;67.80;;;;;;5060561;28;20051;-80
2021/06/22 09:46:46;;;;;;;1.63;1.52;;;20.40;67.50;;;;;;5077397;28;20076;-83
2021/06/22 09:49:31;;;;;;;2.30;1.63;;;20.50;67.50;;;;;;5060249;28;20026;-79
2021/06/22 09:52:03;;;;;;;2.20;1.63;;;20.60;67.20;;;;;;5094775;28;20244;-80
2021/06/22 09:54:31;;;;;;;1.60;1.25;;;20.70;67.30;;;;;;5094813;28;20044;-79
2021/06/22 09:56:59;;;;;;;2.22;1.60;;;20.80;67.40;;;;;;5093866;28;20040;-79
2021/06/22 09:59:28;;;;;;;1.90;1.63;;;20.90;67.20;;;;;;5075142;28;20051;-77
2021/06/22 10:02:03;;;;;;;1.77;1.45;;;21.00;66.80;;;;;;5075293;28;20632;-79
2021/06/22 10:04:29;;;;;;;2.00;1.63;;;20.80;67.00;;;;;;5100241;28;20040;-77
2021/06/22 10:06:58;;;;;;;1.50;1.40;;;20.70;67.40;;;;;;5094222;28;20062;-78
2021/06/22 10:09:55;;;;;;;1.75;1.63;;;20.60;67.70;;;;;;5066062;28;20494;-82
2021/06/22 10:12:23;;;;;;;2.03;1.60;;;20.60;67.70;;;;;;4965230;28;20047;-77
2021/06/22 10:14:51;;;;;;;1.40;1.30;;;20.60;67.80;;;;;;4973856;28;20046;-76
2021/06/22 10:17:20;;;;;;;1.50;1.38;;;20.70;67.50;;;;;;4958174;28;20061;-78
2021/06/22 10:19:49;;;;;;;1.88;1.50;;;20.90;67.20;;;;;;4974489;28;20047;-79
2021/06/22 10:22:16;;;;;;;1.60;1.50;;;21.00;67.00;;;;;;4963329;28;20074;-79
2021/06/22 10:24:44;;;;;;;1.80;1.60;;;21.10;66.80;;;;;;4961955;28;20101;-79
2021/06/22 10:27:12;;;;;;;2.20;1.67;;;21.10;66.50;;;;;;4962618;28;20129;-79
2021/06/22 10:29:38;;;;;;;1.88;1.60;;;21.30;66.50;;;;;;4961665;28;20042;-78
2021/06/22 10:32:05;;;;;;;1.95;1.65;;;21.40;66.00;;;;;;4958756;28;20046;-77
2021/06/22 10:34:31;;;;;;;1.95;1.70;;;21.40;65.90;;;;;;4978867;28;20042;-79
2021/06/22 10:37:03;;;;;;;1.67;1.55;;;21.40;65.80;;;;;;5018863;28;20054;-79
2021/06/22 10:39:34;;;;;;;2.45;1.75;;;21.50;66.40;;;;;;5011624;28;20056;-80
2021/06/22 10:42:05;;;;;;;;;;;21.40;65.90;;;;;;5012124;28;20394;-78
2021/06/22 10:44:34;;;;;;;2.15;1.67;;;21.40;66.10;;;;;;5078374;28;19916;-80
2021/06/22 10:47:32;;;;;;;1.65;1.50;;;21.30;66.00;;;;;;5081827;28;20040;-77
2021/06/22 10:50:10;;;;;;;4.10;1.90;;;21.20;66.10;;;;;;5098042;28;20078;-77
2021/06/22 10:52:52;;;;;;;2.17;1.50;;;21.20;66.10;;;;;;5076689;28;20089;-77
2021/06/22 10:55:35;;;;;;;1.73;1.50;;;21.30;66.10;;;;;;5094483;28;20039;-77
2021/06/22 10:58:17;;;;;;;1.88;1.48;;;21.30;66.00;;;;;;5061059;28;20101;-77
2021/06/22 11:01:07;;;;;;;2.08;1.50;;;21.40;65.90;;;;;;5098677;28;20047;-78
2021/06/22 11:03:34;;;;;;;2.17;1.47;;;21.40;65.40;;;;;;5085613;28;20047;-81
2021/06/22 11:06:21;;;;;;;1.55;1.42;;;21.50;65.40;;;;;;5060952;28;20066;-80
2021/06/22 11:08:47;;;;;;;2.28;1.38;;;21.50;65.00;;;;;;5084450;28;20110;-78
2021/06/22 11:11:18;;;;;;;1.70;1.50;;;21.60;65.00;;;;;;5096746;28;20055;-80
2021/06/22 11:13:47;;;;;;;2.00;1.58;;;21.70;64.70;;;;;;5068754;28;20039;-77
2021/06/22 11:16:29;;;;;;;1.42;1.33;;;21.70;64.50;;;;;;5112812;28;20028;-77
2021/06/22 11:19:09;;;;;;;1.50;1.40;;;21.70;64.30;;;;;;5097716;28;20047;-85
2021/06/22 11:21:36;;;;;;;;;;;21.80;64.10;;;;;;5075878;28;20126;-80
2021/06/22 11:24:09;;;;;;;1.40;1.20;;;21.80;64.30;;;;;;5076760;28;20363;-78
2021/06/22 11:26:58;;;;;;;1.60;1.38;;;21.70;64.20;;;;;;5095409;28;20064;-79
2021/06/22 11:29:43;;;;;;;1.48;1.30;;;21.70;64.00;;;;;;5047174;28;20508;-81
2021/06/22 11:32:09;;;;;;;1.30;1.20;;;21.70;64.00;;;;;;5060363;28;20116;-78
2021/06/22 11:34:54;;;;;;;2.40;2.00;;;21.70;64.60;;;;;;5092745;28;20052;-78
2021/06/22 11:37:22;;;;;;;1.40;1.30;;;21.60;63.60;;;;;;5057910;28;20486;-78
2021/06/22 11:40:05;;;;;;;2.25;1.67;;;21.60;63.90;;;;;;5079444;28;20562;-78
2021/06/22 11:42:36;;;;;;;2.17;1.70;;;21.60;63.50;;;;;;5077334;28;20048;-80
2021/06/22 11:45:22;;;;;;;2.13;1.58;;;21.60;63.90;;;;;;5062343;28;20132;-82
2021/06/22 11:47:50;;;;;;;2.10;1.60;;;21.60;63.60;;;;;;5060851;28;20039;-77
2021/06/22 11:50:24;;;;;;;1.70;1.55;;;21.60;63.50;;;;;;5051380;28;20081;-81
2021/06/22 11:52:58;;;;;;;2.00;1.80;;;21.70;63.60;;;;;;5065388;28;20048;-78
2021/06/22 11:55:28;;;;;;;3.00;1.60;;;21.70;63.50;;;;;;5101145;28;20066;-86
2021/06/22 11:57:57;;;;;;;1.20;1.10;;;21.70;63.20;;;;;;5045404;28;20074;-79
2021/06/22 12:00:28;;;;;;;1.17;1.05;;;21.80;63.20;;;;;;5097063;28;20479;-81
2021/06/22 12:02:58;;;;;;;1.30;1.10;;;21.80;63.10;;;;;;5058791;28;20040;-77
2021/06/22 12:05:26;;;;;;;2.55;1.77;;;21.80;62.90;;;;;;5074538;28;20047;-80
2021/06/22 12:08:01;;;;;;;1.70;1.45;;;21.80;62.60;;;;;;5075264;28;20600;-79
2021/06/22 12:10:48;;;;;;;1.70;1.30;;;21.80;62.40;;;;;;5097161;28;20093;-82
2021/06/22 12:13:36;;;;;;;1.42;1.20;;;21.90;62.30;;;;;;5074508;28;20044;-78
2021/06/22 12:16:15;;;;;;;1.50;1.20;;;21.90;62.20;;;;;;5099356;28;20056;-78
2021/06/22 12:18:41;;;;;;;1.40;1.30;;;22.00;62.10;;;;;;5065155;28;20054;-81
2021/06/22 12:21:07;;;;;;;1.33;1.20;;;22.00;62.20;;;;;;5078113;28;20044;-79
2021/06/22 12:23:33;;;;;;;1.60;1.40;;;22.00;61.80;;;;;;5076109;28;20132;-82
2021/06/22 12:25:59;;;;;;;2.75;1.40;;;22.10;61.70;;;;;;5085304;28;20052;-82
2021/06/22 12:28:31;;;;;;;1.92;1.48;;;22.10;61.50;;;;;;5098783;28;20488;-81
2021/06/22 12:30:59;;;;;;;1.98;1.42;;;22.10;61.30;;;;;;5061292;28;20044;-83
2021/06/22 12:33:28;;;;;;;2.05;1.70;;;22.00;61.30;;;;;;5044770;28;20036;-83
2021/06/22 12:35:59;;;;;;;1.23;1.13;;;22.10;61.30;;;;;;5079169;28;20044;-81
2021/06/22 12:38:24;;;;;;;;;;;22.10;61.20;;;;;;5078194;28;20051;-81
2021/06/22 12:41:01;;;;;;;1.20;1.10;;;22.10;61.00;;;;;;5060103;28;19919;-81
2021/06/22 12:43:48;;;;;;;1.50;1.30;;;22.30;61.10;;;;;;5077820;28;20048;-81
2021/06/22 12:46:19;;;;;;;1.20;1.10;;;22.40;60.80;;;;;;5075859;28;20132;-78
2021/06/22 12:48:46;;;;;;;1.30;1.20;;;22.50;60.30;;;;;;5080621;28;20043;-79
2021/06/22 12:51:13;;;;;;;1.30;1.20;;;22.70;60.10;;;;;;5080358;28;20098;-80
2021/06/22 12:53:40;;;;;;;2.13;1.40;;;22.70;59.90;;;;;;5077385;28;20043;-79
2021/06/22 12:56:07;;;;;;;1.25;1.15;;;22.40;59.90;;;;;;5080613;28;20497;-80
2021/06/22 12:58:44;;;;;;;1.85;1.40;;;22.30;60.40;;;;;;5098057;28;20154;-80
2021/06/22 13:01:26;;;;;;;1.42;1.20;;;22.30;60.50;;;;;;5066211;28;20545;-76
2021/06/22 13:03:52;;;;;;;1.40;1.17;;;22.40;60.60;;;;;;5087685;28;20133;-77